createdAt,value
2023-05-02T00:02:06.380Z,96762.44
2023-05-02T00:04:38.328Z,96767.41
2023-05-02T00:07:11.439Z,96763.53
2023-05-02T00:09:43.073Z,96758.72
2023-05-02T00:12:14.673Z,96758.13
2023-05-02T00:14:46.208Z,96764.38
2023-05-02T00:17:21.463Z,96767.50
2023-05-02T00:19:55.309Z,96756.72
2023-05-02T00:22:26.904Z,96765.13
2023-05-02T00:24:59.091Z,96762.97
2023-05-02T00:27:34.503Z,96757.91
2023-05-02T00:30:07.125Z,96753.44
2023-05-02T00:32:41.706Z,96755.66
2023-05-02T00:35:13.363Z,96750.19
2023-05-02T00:37:44.889Z,96754.22
2023-05-02T00:40:16.565Z,96755.38
2023-05-02T00:42:48.184Z,96755.81
2023-05-02T00:45:19.973Z,96761.56
2023-05-02T00:47:55.426Z,96756.25
2023-05-02T00:50:28.942Z,96748.16
2023-05-02T00:53:01.052Z,96746.88
2023-05-02T00:55:34.368Z,96742.31
2023-05-02T00:58:11.896Z,96746.63
2023-05-02T01:01:17.645Z,96749.72
2023-05-02T01:04:20.309Z,96753.34
2023-05-02T01:07:54.492Z,96747.25
2023-05-02T01:10:49.618Z,96744.47
2023-05-02T01:13:26.257Z,96748.31
2023-05-02T01:15:59.750Z,96749.72
2023-05-02T01:18:37.949Z,96744.53
2023-05-02T01:21:11.746Z,96752.91
2023-05-02T01:24:19.764Z,96746.06
2023-05-02T01:27:11.504Z,96748.66
2023-05-02T01:29:44.469Z,96751.34
2023-05-02T01:32:17.110Z,96767.97
2023-05-02T01:34:51.255Z,96758.28
2023-05-02T01:37:23.923Z,96761.72
2023-05-02T01:39:57.334Z,96762.78
2023-05-02T01:42:30.276Z,96753.13
2023-05-02T01:45:04.455Z,96755.88
2023-05-02T01:47:37.839Z,96754.19
2023-05-02T01:50:13.957Z,96765.13
2023-05-02T01:52:49.700Z,96762.22
2023-05-02T01:55:22.393Z,96764.41
2023-05-02T01:57:56.277Z,96760.75
2023-05-02T02:00:29.411Z,96756.31
2023-05-02T02:03:03.830Z,96766.63
2023-05-02T02:05:37.794Z,96757.91
2023-05-02T02:08:09.524Z,96765.09
2023-05-02T02:10:45.021Z,96767.41
2023-05-02T02:13:39.145Z,96770.66
2023-05-02T02:16:23.979Z,96770.06
2023-05-02T02:18:57.659Z,96774.81
2023-05-02T02:21:32.279Z,96782.22
2023-05-02T02:24:06.577Z,96777.44
2023-05-02T02:26:41.146Z,96782.63
2023-05-02T02:29:12.858Z,96776.50
2023-05-02T02:31:47.567Z,96783.84
2023-05-02T02:34:20.576Z,96789.22
2023-05-02T02:37:12.511Z,96782.50
2023-05-02T02:40:33.771Z,96789.66
2023-05-02T02:43:14.441Z,96790.44
2023-05-02T02:46:24.674Z,96794.31
2023-05-02T02:49:28.703Z,96800.97
2023-05-02T02:52:29.880Z,96789.13
2023-05-02T02:55:24.467Z,96791.91
2023-05-02T02:58:04.366Z,96800.13
2023-05-02T03:00:39.872Z,96801.78
2023-05-02T03:03:16.628Z,96798.25
2023-05-02T03:05:49.547Z,96806.22
2023-05-02T03:08:21.154Z,96800.13
2023-05-02T03:10:52.711Z,96803.91
2023-05-02T03:13:24.298Z,96807.31
2023-05-02T03:15:57.515Z,96809.06
2023-05-02T03:18:29.168Z,96802.03
2023-05-02T03:21:01.969Z,96815.41
2023-05-02T03:23:33.719Z,96809.34
2023-05-02T03:26:06.186Z,96810.56
2023-05-02T03:28:37.744Z,96813.41
2023-05-02T03:31:11.476Z,96816.41
2023-05-02T03:33:43.191Z,96816.22
2023-05-02T03:36:15.635Z,96822.81
2023-05-02T03:38:47.179Z,96819.16
2023-05-02T03:41:20.135Z,96825.25
2023-05-02T03:43:51.896Z,96825.09
2023-05-02T03:46:23.546Z,96818.81
2023-05-02T03:48:55.177Z,96823.56
2023-05-02T03:51:26.932Z,96812.69
2023-05-02T03:53:58.526Z,96835.28
2023-05-02T03:56:32.910Z,96830.09
2023-05-02T03:59:04.730Z,96826.44
2023-05-02T04:01:36.434Z,96835.00
2023-05-02T04:04:08.683Z,96836.81
2023-05-02T04:06:40.403Z,96836.81
2023-05-02T04:09:12.063Z,96840.78
2023-05-02T04:11:43.636Z,96843.72
2023-05-02T04:14:15.304Z,96834.56
2023-05-02T04:16:51.308Z,96843.38
2023-05-02T04:19:22.871Z,96843.06
2023-05-02T04:21:54.440Z,96849.53
2023-05-02T04:24:26.150Z,96851.75
2023-05-02T04:26:57.731Z,96854.66
2023-05-02T04:29:29.295Z,96851.72
2023-05-02T04:32:00.874Z,96853.94
2023-05-02T04:34:32.549Z,96851.19
2023-05-02T04:37:04.106Z,96871.47
2023-05-02T04:39:35.756Z,96873.00
2023-05-02T04:42:10.350Z,96870.88
2023-05-02T04:44:41.926Z,96873.78
2023-05-02T04:47:13.548Z,96869.81
2023-05-02T04:49:45.097Z,96882.34
2023-05-02T04:52:16.751Z,96886.03
2023-05-02T04:54:48.343Z,96891.94
2023-05-02T04:57:21.315Z,96893.59
2023-05-02T04:59:54.560Z,96889.72
2023-05-02T05:02:26.758Z,96897.53
2023-05-02T05:04:58.515Z,96904.28
2023-05-02T05:07:30.205Z,96910.03
2023-05-02T05:10:02.079Z,96904.66
2023-05-02T05:12:33.876Z,96911.56
2023-05-02T05:15:06.996Z,96914.75
2023-05-02T05:17:39.180Z,96915.69
2023-05-02T05:20:11.119Z,96913.72
2023-05-02T05:22:43.136Z,96914.00
2023-05-02T05:25:15.223Z,96921.34
2023-05-02T05:27:46.878Z,96923.63
2023-05-02T05:30:18.511Z,96933.13
2023-05-02T05:32:50.539Z,96940.75
2023-05-02T05:35:22.154Z,96936.72
2023-05-02T05:37:53.850Z,96949.91
2023-05-02T05:40:25.487Z,96946.41
2023-05-02T05:42:57.099Z,96946.72
2023-05-02T05:45:28.667Z,96950.09
2023-05-02T05:48:00.397Z,96949.00
2023-05-02T05:50:31.975Z,96954.06
2023-05-02T05:53:03.623Z,96958.63
2023-05-02T05:55:37.341Z,96967.56
2023-05-02T05:58:12.818Z,96967.03
2023-05-02T06:00:47.453Z,96962.63
2023-05-02T06:03:19.221Z,96965.34
2023-05-02T06:05:50.925Z,96967.56
2023-05-02T06:08:22.484Z,96965.81
2023-05-02T06:10:54.077Z,96971.00
2023-05-02T06:13:26.283Z,96969.09
2023-05-02T06:16:02.059Z,96968.56
2023-05-02T06:18:33.688Z,96982.16
2023-05-02T06:21:06.463Z,96983.41
2023-05-02T06:23:38.193Z,96983.22
2023-05-02T06:26:10.295Z,96985.31
2023-05-02T06:28:42.066Z,96988.72
2023-05-02T06:31:13.684Z,96981.81
2023-05-02T06:33:45.365Z,96988.31
2023-05-02T06:36:16.965Z,96992.88
2023-05-02T06:38:48.726Z,96989.81
2023-05-02T06:41:20.818Z,96994.69
2023-05-02T06:43:52.439Z,96997.78
2023-05-02T06:46:24.065Z,97003.34
2023-05-02T06:48:55.713Z,97013.63
2023-05-02T06:51:27.841Z,97011.53
2023-05-02T06:53:59.602Z,97012.53
2023-05-02T06:56:31.373Z,97013.88
2023-05-02T06:59:02.996Z,97015.31
2023-05-02T07:01:34.726Z,97013.56
2023-05-02T07:04:06.448Z,97021.63
2023-05-02T07:06:41.346Z,97018.28
2023-05-02T07:09:12.969Z,97016.25
2023-05-02T07:11:44.535Z,97020.00
2023-05-02T07:14:16.220Z,97020.25
2023-05-02T07:16:50.772Z,97033.19
2023-05-02T07:19:22.379Z,97027.13
2023-05-02T07:21:54.075Z,97025.94
2023-05-02T07:24:28.682Z,97027.16
2023-05-02T07:27:00.809Z,97018.84
2023-05-02T07:29:32.515Z,97014.41
2023-05-02T07:32:04.216Z,97028.47
2023-05-02T07:34:35.842Z,97028.22
2023-05-02T07:37:07.418Z,97020.38
2023-05-02T07:39:41.822Z,97021.69
2023-05-02T07:42:13.425Z,97027.31
2023-05-02T07:44:45.025Z,97023.91
2023-05-02T07:47:16.572Z,97023.28
2023-05-02T07:49:52.533Z,97029.09
2023-05-02T07:52:24.137Z,97028.16
2023-05-02T07:54:56.375Z,97035.34
2023-05-02T07:57:27.952Z,97030.63
2023-05-02T08:00:00.087Z,97035.16
2023-05-02T08:02:32.063Z,97035.81
2023-05-02T08:05:04.619Z,97041.44
2023-05-02T08:07:37.269Z,97055.66
2023-05-02T08:10:10.231Z,97058.06
2023-05-02T08:12:42.562Z,97055.91
2023-05-02T08:15:14.421Z,97059.53
2023-05-02T08:17:46.018Z,97058.69
2023-05-02T08:20:17.862Z,97062.78
2023-05-02T08:22:50.438Z,97059.09
2023-05-02T08:25:22.159Z,97055.84
2023-05-02T08:27:53.712Z,97063.94
2023-05-02T08:30:25.542Z,97061.56
2023-05-02T08:32:57.134Z,97068.09
2023-05-02T08:35:31.871Z,97065.25
2023-05-02T08:38:03.485Z,97067.22
2023-05-02T08:40:41.463Z,97062.69
2023-05-02T08:43:16.382Z,97069.28
2023-05-02T08:45:53.847Z,97063.63
2023-05-02T08:48:26.836Z,97071.69
2023-05-02T08:50:59.551Z,97070.53
2023-05-02T08:53:34.744Z,97075.72
2023-05-02T08:56:08.100Z,97079.81
2023-05-02T08:58:41.284Z,97081.09
2023-05-02T09:01:19.344Z,97081.69
2023-05-02T09:03:52.302Z,97086.72
2023-05-02T09:06:24.082Z,97092.25
2023-05-02T09:08:59.646Z,97095.72
2023-05-02T09:11:31.462Z,97095.00
2023-05-02T09:14:16.178Z,97087.94
2023-05-02T09:16:47.956Z,97090.06
2023-05-02T09:19:26.826Z,97090.59
2023-05-02T09:22:01.950Z,97095.88
2023-05-02T09:24:33.957Z,97093.53
2023-05-02T09:27:06.023Z,97105.16
2023-05-02T09:29:39.090Z,97094.03
2023-05-02T09:32:20.591Z,97099.91
2023-05-02T09:35:06.861Z,97102.13
2023-05-02T09:37:38.669Z,97096.19
2023-05-02T09:40:11.430Z,97096.81
2023-05-02T09:42:43.100Z,97091.56
2023-05-02T09:45:32.907Z,97091.44
2023-05-02T09:48:04.952Z,97090.09
2023-05-02T09:50:38.481Z,97095.91
2023-05-02T09:53:11.321Z,97095.34
2023-05-02T09:55:42.895Z,97097.94
2023-05-02T09:58:32.796Z,97099.09
2023-05-02T10:01:08.028Z,97098.44
2023-05-02T10:03:42.143Z,97093.84
2023-05-02T10:06:15.911Z,97094.28
2023-05-02T10:13:22.673Z,97100.59
2023-05-02T10:16:03.051Z,97102.94
2023-05-02T10:19:10.667Z,97109.19
2023-05-02T10:21:43.568Z,97108.38
2023-05-02T10:24:16.640Z,97102.03
2023-05-02T10:26:48.512Z,97116.97
2023-05-02T10:29:21.041Z,97115.44
2023-05-02T10:31:53.528Z,97110.44
2023-05-02T10:34:26.055Z,97108.22
2023-05-02T10:37:01.574Z,97103.28
2023-05-02T10:39:33.448Z,97105.03
2023-05-02T10:42:09.064Z,97099.88
2023-05-02T10:44:41.691Z,97103.78
2023-05-02T10:47:21.927Z,97093.88
2023-05-02T10:50:01.999Z,97094.19
2023-05-02T10:52:38.277Z,97093.25
2023-05-02T10:55:25.333Z,97091.19
2023-05-02T10:58:08.818Z,97087.00
2023-05-02T11:00:40.455Z,97086.47
2023-05-02T11:03:12.167Z,97089.06
2023-05-02T11:06:07.876Z,97090.63
2023-05-02T11:08:41.754Z,97085.97
2023-05-02T11:11:42.646Z,97101.69
2023-05-02T11:14:34.315Z,97096.88
2023-05-02T11:17:08.566Z,97107.31
2023-05-02T11:19:46.334Z,97104.78
2023-05-02T11:22:18.057Z,97095.34
2023-05-02T11:24:51.213Z,97098.13
2023-05-02T11:27:38.218Z,97088.53
2023-05-02T11:30:10.994Z,97091.47
2023-05-02T11:32:45.989Z,97085.50
2023-05-02T11:35:23.541Z,97090.88
2023-05-02T11:38:00.966Z,97089.25
2023-05-02T11:40:32.965Z,97090.75
2023-05-02T11:43:16.730Z,97097.22
2023-05-02T11:45:48.797Z,97081.94
2023-05-02T11:48:23.330Z,97088.59
2023-05-02T11:51:05.319Z,97074.59
2023-05-02T11:53:41.646Z,97071.59
2023-05-02T11:56:13.322Z,97071.84
2023-05-02T11:58:46.964Z,97079.91
2023-05-02T12:01:18.728Z,97075.19
2023-05-02T12:03:52.592Z,97082.72
2023-05-02T12:06:24.344Z,97075.69
2023-05-02T12:09:11.184Z,97078.88
2023-05-02T12:11:43.661Z,97077.50
2023-05-02T12:14:15.994Z,97084.00
2023-05-02T12:16:47.825Z,97073.16
2023-05-02T12:19:19.628Z,97083.34
2023-05-02T12:21:51.746Z,97089.41
2023-05-02T12:24:25.446Z,97077.06
2023-05-02T12:27:17.084Z,97084.28
2023-05-02T12:29:49.549Z,97094.69
2023-05-02T12:32:30.643Z,97091.50
2023-05-02T12:35:03.951Z,97087.25
2023-05-02T12:37:35.824Z,97087.06
2023-05-02T12:40:17.082Z,97095.31
2023-05-02T12:43:04.352Z,97084.94
2023-05-02T12:45:36.719Z,97089.78
2023-05-02T12:48:26.463Z,97087.13
2023-05-02T12:51:00.419Z,97077.00
2023-05-02T12:53:43.307Z,97082.00
2023-05-02T12:56:15.188Z,97071.75
2023-05-02T12:58:48.137Z,97075.56
2023-05-02T13:01:19.760Z,97062.94
2023-05-02T13:03:51.597Z,97078.66
2023-05-02T13:06:23.435Z,97076.56
2023-05-02T13:08:55.082Z,97072.50
2023-05-02T13:11:26.914Z,97077.63
2023-05-02T13:14:00.334Z,97071.44
2023-05-02T13:16:33.744Z,97075.91
2023-05-02T13:19:05.765Z,97075.13
2023-05-02T13:21:37.400Z,97069.91
2023-05-02T13:24:08.958Z,97068.53
2023-05-02T13:26:44.248Z,97073.16
2023-05-02T13:29:18.968Z,97071.97
2023-05-02T13:31:50.575Z,97065.75
2023-05-02T13:34:22.161Z,97066.00
2023-05-02T13:36:53.736Z,97067.75
2023-05-02T13:39:25.327Z,97064.00
2023-05-02T13:41:56.909Z,97070.75
2023-05-02T13:44:28.567Z,97064.22
2023-05-02T13:47:00.201Z,97063.13
2023-05-02T13:49:31.795Z,97052.41
2023-05-02T13:52:04.341Z,97061.50
2023-05-02T13:54:36.052Z,97059.38
2023-05-02T13:57:07.906Z,97048.88
2023-05-02T13:59:39.505Z,97060.13
2023-05-02T14:02:11.312Z,97052.34
2023-05-02T14:04:43.107Z,97060.94
2023-05-02T14:07:15.013Z,97054.34
2023-05-02T14:09:48.763Z,97056.88
2023-05-02T14:12:20.486Z,97047.66
2023-05-02T14:14:52.317Z,97049.47
2023-05-02T14:19:58.921Z,97047.22
2023-05-02T14:22:31.039Z,97047.53
2023-05-02T14:25:02.665Z,97056.00
2023-05-02T14:27:34.228Z,97054.09
2023-05-02T14:30:07.839Z,97058.72
2023-05-02T14:32:39.538Z,97064.34
2023-05-02T14:35:11.304Z,97070.25
2023-05-02T14:37:45.050Z,97068.00
2023-05-02T14:40:17.104Z,97063.16
2023-05-02T14:42:48.668Z,97074.03
2023-05-02T14:45:20.281Z,97073.31
2023-05-02T14:47:52.385Z,97075.66
2023-05-02T14:50:24.315Z,97068.66
2023-05-02T14:52:56.065Z,97075.31
2023-05-02T14:55:27.702Z,97072.38
2023-05-02T14:57:59.368Z,97079.44
2023-05-02T15:00:30.996Z,97070.25
2023-05-02T15:03:04.447Z,97070.31
2023-05-02T15:05:37.643Z,97066.13
2023-05-02T15:08:09.236Z,97064.50
2023-05-02T15:10:40.869Z,97066.66
2023-05-02T15:13:12.466Z,97073.78
2023-05-02T15:15:47.585Z,97077.41
2023-05-02T15:18:19.102Z,97062.56
2023-05-02T15:20:50.714Z,97070.19
2023-05-02T15:23:22.910Z,97060.97
2023-05-02T15:25:54.590Z,97061.69
2023-05-02T15:28:26.278Z,97060.75
2023-05-02T15:30:57.895Z,97063.97
2023-05-02T15:33:29.435Z,97070.09
2023-05-02T15:36:04.905Z,97064.41
2023-05-02T15:38:39.466Z,97066.31
2023-05-02T15:41:11.603Z,97071.84
2023-05-02T15:43:43.277Z,97067.25
2023-05-02T15:46:14.937Z,97069.50
2023-05-02T15:48:46.672Z,97064.31
2023-05-02T15:51:21.389Z,97059.00
2023-05-02T15:53:53.281Z,97063.13
2023-05-02T15:56:24.970Z,97060.72
2023-05-02T15:58:56.571Z,97055.97
2023-05-02T16:01:28.217Z,97064.59
2023-05-02T16:04:03.098Z,97064.94
2023-05-02T16:06:34.739Z,97072.50
2023-05-02T16:09:10.217Z,97069.59
2023-05-02T16:11:42.002Z,97073.75
2023-05-02T16:14:13.599Z,97073.44
2023-05-02T16:16:45.366Z,97065.13
2023-05-02T16:19:19.625Z,97080.25
2023-05-02T16:21:52.515Z,97077.56
2023-05-02T16:24:27.224Z,97076.53
2023-05-02T16:26:58.856Z,97074.03
2023-05-02T16:29:30.624Z,97072.66
2023-05-02T16:32:02.227Z,97073.69
2023-05-02T16:34:33.949Z,97069.16
2023-05-02T16:37:08.172Z,97078.06
2023-05-02T16:39:40.018Z,97077.25
2023-05-02T16:42:12.098Z,97072.16
2023-05-02T16:44:43.646Z,97073.19
2023-05-02T16:47:15.883Z,97076.22
2023-05-02T16:49:52.162Z,97085.56
2023-05-02T16:52:25.287Z,97084.47
2023-05-02T16:54:56.998Z,97089.84
2023-05-02T16:57:29.213Z,97090.47
2023-05-02T17:00:01.759Z,97091.78
2023-05-02T17:02:33.645Z,97096.38
2023-05-02T17:05:06.355Z,97092.47
2023-05-02T17:07:37.950Z,97090.34
2023-05-02T17:10:10.440Z,97093.38
2023-05-02T17:12:42.040Z,97095.75
2023-05-02T17:15:16.555Z,97100.53
2023-05-02T17:17:48.162Z,97102.94
2023-05-02T17:20:20.470Z,97094.03
2023-05-02T17:22:52.637Z,97096.16
2023-05-02T17:25:24.224Z,97099.31
2023-05-02T17:27:55.845Z,97092.88
2023-05-02T17:30:27.525Z,97110.22
2023-05-02T17:32:59.357Z,97119.59
2023-05-02T17:35:31.769Z,97116.75
2023-05-02T17:38:03.403Z,97116.41
2023-05-02T17:40:36.107Z,97112.78
2023-05-02T17:43:09.758Z,97126.56
2023-05-02T17:45:41.630Z,97134.19
2023-05-02T17:48:13.418Z,97129.69
2023-05-02T17:50:45.332Z,97136.06
2023-05-02T17:53:17.043Z,97136.44
2023-05-02T17:55:48.583Z,97143.72
2023-05-02T17:58:20.505Z,97153.78
2023-05-02T18:00:52.053Z,97180.34
2023-05-02T18:03:29.406Z,97190.16
2023-05-02T18:06:01.313Z,97177.34
2023-05-02T18:08:36.147Z,97190.03
2023-05-02T18:11:16.278Z,97202.28
2023-05-02T18:13:49.678Z,97205.38
2023-05-02T18:16:21.314Z,97200.94
2023-05-02T18:18:53.606Z,97209.63
2023-05-02T18:21:28.306Z,97212.69
2023-05-02T18:23:59.909Z,97205.03
2023-05-02T18:26:31.550Z,97200.06
2023-05-02T18:29:03.190Z,97215.69
2023-05-02T18:31:36.126Z,97213.97
2023-05-02T18:34:09.195Z,97215.25
2023-05-02T18:36:45.110Z,97227.81
2023-05-02T18:39:16.786Z,97230.88
2023-05-02T18:41:48.404Z,97229.06
2023-05-02T18:44:19.973Z,97234.13
2023-05-02T18:46:51.894Z,97223.84
2023-05-02T18:49:29.308Z,97237.75
2023-05-02T18:52:00.910Z,97233.59
2023-05-02T18:54:33.570Z,97222.53
2023-05-02T18:57:05.276Z,97222.41
2023-05-02T18:59:36.877Z,97227.16
2023-05-02T19:02:08.446Z,97221.81
2023-05-02T19:04:39.999Z,97220.41
2023-05-02T19:07:11.808Z,97234.94
2023-05-02T19:09:43.530Z,97236.00
2023-05-02T19:12:15.253Z,97241.25
2023-05-02T19:14:47.986Z,97239.72
2023-05-02T19:17:19.683Z,97243.09
2023-05-02T19:19:51.991Z,97235.13
2023-05-02T19:22:23.642Z,97238.44
2023-05-02T19:24:55.310Z,97239.00
2023-05-02T19:27:27.254Z,97238.66
2023-05-02T19:29:58.779Z,97241.72
2023-05-02T19:32:30.600Z,97252.56
2023-05-02T19:35:04.346Z,97249.94
2023-05-02T19:37:36.661Z,97251.66
2023-05-02T19:40:09.761Z,97266.56
2023-05-02T19:42:43.667Z,97274.47
2023-05-02T19:45:17.930Z,97272.91
2023-05-02T19:47:49.603Z,97278.44
2023-05-02T19:50:21.182Z,97286.13
2023-05-02T19:52:52.801Z,97287.94
2023-05-02T19:55:24.693Z,97274.03
2023-05-02T19:57:56.345Z,97285.53
2023-05-02T20:00:27.975Z,97285.63
2023-05-02T20:02:59.872Z,97288.41
2023-05-02T20:05:31.511Z,97285.63
2023-05-02T20:08:03.175Z,97291.53
2023-05-02T20:10:36.783Z,97286.13
2023-05-02T20:13:08.347Z,97287.16
2023-05-02T20:15:40.111Z,97284.41
2023-05-02T20:18:11.792Z,97289.81
2023-05-02T20:20:43.424Z,97286.69
2023-05-02T20:23:15.076Z,97293.38
2023-05-02T20:25:46.661Z,97286.69
2023-05-02T20:28:18.274Z,97288.59
2023-05-02T20:30:50.683Z,97293.56
2023-05-02T20:33:27.488Z,97292.28
2023-05-02T20:36:05.739Z,97290.50
2023-05-02T20:39:45.679Z,97295.09
2023-05-02T20:42:23.350Z,97291.53
2023-05-02T20:44:58.458Z,97290.53
2023-05-02T20:47:30.551Z,97291.03
2023-05-02T20:50:02.653Z,97283.88
2023-05-02T20:52:35.681Z,97279.25
2023-05-02T20:55:08.091Z,97281.78
2023-05-02T20:57:40.009Z,97284.59
2023-05-02T21:00:13.728Z,97280.78
2023-05-02T21:02:45.482Z,97281.28
2023-05-02T21:05:17.086Z,97277.22
2023-05-02T21:07:48.671Z,97280.06
2023-05-02T21:10:20.254Z,97274.66
2023-05-02T21:12:51.930Z,97273.91
2023-05-02T21:15:23.498Z,97275.69
2023-05-02T21:18:02.536Z,97283.31
2023-05-02T21:20:34.687Z,97279.75
2023-05-02T21:23:06.464Z,97273.50
2023-05-02T21:25:40.947Z,97272.53
2023-05-02T21:28:12.704Z,97279.25
2023-05-02T21:30:44.334Z,97271.09
2023-05-02T21:33:17.678Z,97267.44
2023-05-02T21:35:57.634Z,97263.56
2023-05-02T21:38:29.266Z,97265.84
2023-05-02T21:41:05.280Z,97258.22
2023-05-02T21:43:40.536Z,97260.53
2023-05-02T21:46:14.936Z,97262.09
2023-05-02T21:48:46.562Z,97258.28
2023-05-02T21:51:18.154Z,97258.28
2023-05-02T21:53:49.897Z,97252.38
2023-05-02T21:56:21.495Z,97259.28
2023-05-02T21:58:53.157Z,97248.53
2023-05-02T22:01:24.922Z,97249.56
2023-05-02T22:03:58.081Z,97251.13
2023-05-02T22:06:29.780Z,97251.34
2023-05-02T22:09:01.534Z,97254.19
2023-05-02T22:11:35.823Z,97256.00
2023-05-02T22:14:07.589Z,97257.00
2023-05-02T22:16:40.163Z,97249.06
2023-05-02T22:19:11.993Z,97254.72
2023-05-02T22:21:43.960Z,97257.00
2023-05-02T22:24:16.678Z,97259.03
2023-05-02T22:26:50.558Z,97253.66
2023-05-02T22:29:22.775Z,97256.47
2023-05-02T22:31:54.448Z,97249.84
2023-05-02T22:34:26.116Z,97247.47
2023-05-02T22:36:57.665Z,97249.00
2023-05-02T22:39:29.261Z,97246.84
2023-05-02T22:42:01.647Z,97243.22
2023-05-02T22:44:37.950Z,97247.00
2023-05-02T22:47:15.490Z,97253.69
2023-05-02T22:49:47.413Z,97244.75
2023-05-02T22:52:22.524Z,97247.75
2023-05-02T22:54:54.313Z,97246.72
2023-05-02T22:57:25.847Z,97242.41
2023-05-02T22:59:57.424Z,97243.56
2023-05-02T23:02:29.168Z,97242.00
2023-05-02T23:05:01.633Z,97237.06
2023-05-02T23:07:33.395Z,97235.63
2023-05-02T23:10:06.395Z,97241.22
2023-05-02T23:12:38.469Z,97237.50
2023-05-02T23:15:10.695Z,97226.78
2023-05-02T23:17:42.370Z,97235.75
2023-05-02T23:20:14.066Z,97230.63
2023-05-02T23:22:46.357Z,97234.69
2023-05-02T23:25:19.109Z,97231.81
2023-05-02T23:27:50.856Z,97229.25
2023-05-02T23:30:22.737Z,97239.75
2023-05-02T23:32:54.466Z,97240.31
2023-05-02T23:35:26.302Z,97234.97
2023-05-02T23:38:00.796Z,97236.16
2023-05-02T23:40:32.818Z,97234.19
2023-05-02T23:43:07.518Z,97233.19
2023-05-02T23:45:39.374Z,97232.94
2023-05-02T23:48:10.956Z,97229.88
2023-05-02T23:50:42.813Z,97239.38
2023-05-02T23:53:14.382Z,97231.91
2023-05-02T23:55:46.131Z,97232.44
2023-05-02T23:58:17.681Z,97244.75
